createdAt,value
2017-09-03T00:00:26.331Z,79.50
2017-09-03T00:02:53.756Z,80.20
2017-09-03T00:05:20.838Z,80.60
2017-09-03T00:07:47.900Z,81.40
2017-09-03T00:10:14.926Z,83.50
2017-09-03T00:12:42.844Z,83.20
2017-09-03T00:15:09.918Z,84.30
2017-09-03T00:17:36.950Z,84.60
2017-09-03T00:20:03.991Z,83.50
2017-09-03T00:22:31.046Z,83.40
2017-09-03T00:24:58.074Z,86.80
2017-09-03T00:27:25.095Z,88.10
2017-09-03T00:29:52.816Z,88.10
2017-09-03T00:32:19.858Z,87.40
2017-09-03T00:34:47.451Z,87.00
2017-09-03T00:37:14.565Z,85.80
2017-09-03T00:39:41.977Z,83.70
2017-09-03T00:42:09.364Z,83.10
2017-09-03T00:44:36.392Z,82.40
2017-09-03T00:47:03.435Z,82.00
2017-09-03T00:49:30.483Z,83.10
2017-09-03T00:51:57.542Z,83.30
2017-09-03T00:54:25.387Z,85.40
2017-09-03T00:56:53.307Z,85.40
2017-09-03T00:59:20.381Z,85.90
2017-09-03T01:01:47.406Z,85.80
2017-09-03T01:04:14.437Z,87.00
2017-09-03T01:06:41.480Z,84.90
2017-09-03T01:09:08.520Z,83.50
2017-09-03T01:11:35.559Z,83.00
2017-09-03T01:14:03.345Z,81.50
2017-09-03T01:16:30.386Z,81.50
2017-09-03T01:18:57.414Z,81.20
2017-09-03T01:21:24.424Z,81.30
2017-09-03T01:23:51.475Z,81.90
2017-09-03T01:26:18.500Z,81.70
2017-09-03T01:28:45.580Z,85.50
2017-09-03T01:31:12.615Z,88.30
2017-09-03T01:33:39.639Z,88.90
2017-09-03T01:36:06.684Z,89.30
2017-09-03T01:38:33.706Z,89.00
2017-09-03T01:41:00.755Z,89.00
2017-09-03T01:43:27.776Z,88.80
2017-09-03T01:45:54.794Z,88.00
2017-09-03T01:48:21.848Z,87.80
2017-09-03T01:50:48.868Z,87.30
2017-09-03T01:53:15.880Z,85.70
2017-09-03T01:55:42.904Z,85.00
2017-09-03T01:58:09.951Z,84.80
2017-09-03T02:00:36.967Z,85.30
2017-09-03T02:03:03.991Z,86.10
2017-09-03T02:05:31.019Z,86.10
2017-09-03T02:07:58.813Z,85.00
2017-09-03T02:10:25.847Z,85.00
2017-09-03T02:12:52.878Z,84.20
2017-09-03T02:15:20.716Z,83.80
2017-09-03T02:17:47.735Z,83.80
2017-09-03T02:20:14.756Z,84.60
2017-09-03T02:22:42.566Z,86.10
2017-09-03T02:25:09.693Z,86.00
2017-09-03T02:27:36.747Z,86.00
2017-09-03T02:30:03.759Z,86.60
2017-09-03T02:32:30.806Z,87.40
2017-09-03T02:34:57.869Z,86.50
2017-09-03T02:37:24.914Z,84.90
2017-09-03T02:39:51.920Z,84.90
2017-09-03T02:42:18.976Z,84.00
2017-09-03T02:44:45.982Z,84.70
2017-09-03T02:47:13.035Z,85.10
2017-09-03T02:49:40.038Z,84.90
2017-09-03T02:52:07.847Z,82.80
2017-09-03T02:54:34.895Z,82.70
2017-09-03T02:57:01.936Z,83.70
2017-09-03T02:59:29.006Z,83.30
2017-09-03T03:01:56.024Z,83.70
2017-09-03T03:04:23.055Z,83.70
2017-09-03T03:06:50.121Z,84.20
2017-09-03T03:09:17.151Z,84.20
2017-09-03T03:11:44.208Z,84.40
2017-09-03T03:14:11.235Z,84.20
2017-09-03T03:16:38.250Z,84.90
2017-09-03T03:19:05.323Z,85.90
2017-09-03T03:21:32.347Z,85.60
2017-09-03T03:23:59.419Z,86.00
2017-09-03T03:26:26.437Z,86.00
2017-09-03T03:28:53.524Z,86.00
2017-09-03T03:31:20.541Z,86.10
2017-09-03T03:33:47.564Z,86.70
2017-09-03T03:36:14.603Z,86.10
2017-09-03T03:38:41.619Z,87.10
2017-09-03T03:41:08.687Z,87.70
2017-09-03T03:43:35.729Z,88.20
2017-09-03T03:46:02.750Z,88.50
2017-09-03T03:48:29.798Z,88.20
2017-09-03T03:50:56.816Z,88.50
2017-09-03T03:53:23.876Z,88.40
2017-09-03T03:55:50.896Z,88.90
2017-09-03T03:58:17.919Z,90.10
2017-09-03T04:00:44.981Z,90.40
2017-09-03T04:03:11.990Z,90.40
2017-09-03T04:05:39.027Z,90.50
2017-09-03T04:08:06.047Z,90.60
2017-09-03T04:10:33.100Z,90.70
2017-09-03T04:13:00.128Z,90.70
2017-09-03T04:15:27.159Z,90.70
2017-09-03T04:17:54.191Z,90.70
2017-09-03T04:20:21.211Z,90.70
2017-09-03T04:22:48.278Z,90.70
2017-09-03T04:25:15.340Z,90.60
2017-09-03T04:27:42.370Z,90.50
2017-09-03T04:43:14.428Z,90.40
2017-09-03T04:45:41.439Z,90.10
2017-09-03T04:48:08.495Z,90.00
2017-09-03T04:50:35.531Z,90.10
2017-09-03T04:53:02.546Z,90.10
2017-09-03T04:55:29.593Z,90.20
2017-09-03T04:57:56.605Z,90.20
2017-09-03T05:00:23.651Z,90.30
2017-09-03T05:02:50.669Z,90.30
2017-09-03T05:05:17.705Z,90.30
2017-09-03T05:07:44.752Z,90.40
2017-09-03T05:10:11.795Z,90.50
2017-09-03T05:12:38.829Z,90.50
2017-09-03T05:15:05.846Z,90.70
2017-09-03T05:17:32.897Z,90.70
2017-09-03T05:19:59.925Z,90.70
2017-09-03T05:22:26.980Z,90.60
2017-09-03T05:24:54.021Z,90.50
2017-09-03T05:27:21.042Z,90.50
2017-09-03T05:29:48.085Z,90.50
2017-09-03T05:32:15.146Z,90.50
2017-09-03T05:34:43.051Z,90.50
2017-09-03T05:37:10.095Z,90.50
2017-09-03T05:39:37.135Z,90.50
2017-09-03T05:42:04.178Z,90.60
2017-09-03T05:44:31.203Z,90.60
2017-09-03T05:46:58.265Z,90.60
2017-09-03T05:49:25.291Z,90.60
2017-09-03T05:51:53.181Z,90.60
2017-09-03T05:54:20.239Z,90.60
2017-09-03T05:56:47.275Z,90.70
2017-09-03T05:59:14.400Z,90.30
2017-09-03T06:01:41.489Z,89.70
2017-09-03T06:04:08.555Z,88.60
2017-09-03T06:06:35.602Z,88.70
2017-09-03T06:09:02.655Z,88.30
2017-09-03T06:11:29.800Z,89.50
2017-09-03T06:13:56.848Z,90.00
2017-09-03T06:16:23.895Z,89.80
2017-09-03T06:18:51.130Z,89.80
2017-09-03T06:21:18.185Z,89.90
2017-09-03T06:23:45.227Z,89.60
2017-09-03T06:26:12.240Z,90.10
2017-09-03T06:28:39.312Z,90.20
2017-09-03T06:31:06.322Z,89.90
2017-09-03T06:33:33.379Z,89.90
2017-09-03T06:38:56.411Z,90.00
2017-09-03T06:41:23.438Z,89.50
2017-09-03T06:43:50.536Z,89.70
2017-09-03T06:46:17.618Z,89.50
2017-09-03T06:48:44.795Z,89.20
2017-09-03T06:51:11.827Z,89.10
2017-09-03T06:53:38.875Z,88.30
2017-09-03T06:56:05.923Z,88.40
2017-09-03T06:58:32.966Z,88.90
2017-09-03T07:01:00.011Z,89.10
2017-09-03T07:03:27.047Z,88.80
2017-09-03T07:05:54.895Z,87.90
2017-09-03T07:08:22.023Z,87.90
2017-09-03T07:10:49.997Z,87.60
2017-09-03T07:13:17.113Z,87.30
2017-09-03T07:15:44.175Z,87.20
2017-09-03T07:18:11.244Z,87.70
2017-09-03T07:20:38.303Z,87.70
2017-09-03T07:23:05.330Z,87.50
2017-09-03T07:25:32.386Z,87.70
2017-09-03T07:27:59.452Z,87.60
2017-09-03T07:30:27.246Z,88.80
2017-09-03T07:32:54.290Z,88.80
2017-09-03T07:35:21.323Z,87.50
2017-09-03T07:37:48.359Z,87.10
2017-09-03T07:40:15.426Z,86.00
2017-09-03T07:42:42.474Z,85.80
2017-09-03T07:45:09.487Z,86.10
2017-09-03T07:47:36.545Z,86.10
2017-09-03T07:50:03.586Z,83.80
2017-09-03T07:52:30.637Z,84.40
2017-09-03T07:54:57.687Z,84.10
2017-09-03T07:57:24.743Z,83.10
2017-09-03T07:59:52.501Z,83.10
2017-09-03T08:02:19.541Z,82.80
2017-09-03T08:04:46.579Z,83.90
2017-09-03T08:07:13.636Z,80.70
2017-09-03T08:09:40.667Z,80.60
2017-09-03T08:12:07.692Z,79.20
2017-09-03T08:14:34.731Z,79.30
2017-09-03T08:17:01.781Z,78.90
2017-09-03T08:19:28.835Z,78.20
2017-09-03T08:21:55.867Z,76.10
2017-09-03T08:24:22.881Z,75.60
2017-09-03T08:26:49.949Z,74.60
2017-09-03T08:29:16.987Z,77.10
2017-09-03T08:31:44.039Z,72.30
2017-09-03T08:34:11.064Z,71.90
2017-09-03T08:36:38.139Z,73.80
2017-09-03T08:39:05.189Z,70.20
2017-09-03T08:41:33.119Z,68.30
2017-09-03T08:44:00.182Z,67.90
2017-09-03T08:46:27.255Z,67.10
2017-09-03T08:48:54.340Z,66.20
2017-09-03T08:51:21.386Z,66.20
2017-09-03T08:53:48.538Z,66.90
2017-09-03T08:56:15.602Z,65.30
2017-09-03T08:58:42.650Z,66.20
2017-09-03T09:01:09.721Z,65.60
2017-09-03T09:03:36.781Z,65.00
2017-09-03T09:06:03.832Z,63.70
2017-09-03T09:08:31.930Z,63.40
2017-09-03T09:10:58.965Z,63.50
2017-09-03T09:13:26.020Z,63.00
2017-09-03T09:15:53.043Z,62.70
2017-09-03T09:18:20.108Z,62.20
2017-09-03T09:20:47.924Z,62.70
2017-09-03T09:23:14.963Z,62.60
2017-09-03T09:25:42.092Z,60.50
2017-09-03T09:28:09.141Z,61.10
2017-09-03T09:30:36.211Z,55.40
2017-09-03T09:33:03.230Z,59.20
2017-09-03T09:35:31.079Z,60.20
2017-09-03T09:37:58.132Z,60.20
2017-09-03T09:40:25.970Z,62.80
2017-09-03T09:42:53.007Z,62.80
2017-09-03T09:45:20.032Z,61.00
2017-09-03T09:47:47.111Z,60.90
2017-09-03T09:50:14.199Z,60.60
2017-09-03T09:52:41.264Z,61.00
2017-09-03T09:55:08.326Z,60.60
2017-09-03T09:57:35.369Z,59.50
2017-09-03T10:00:02.422Z,61.50
2017-09-03T10:02:29.472Z,61.50
2017-09-03T10:04:56.639Z,60.50
2017-09-03T10:07:23.677Z,61.10
2017-09-03T10:09:50.702Z,61.30
2017-09-03T10:12:17.773Z,60.50
2017-09-03T10:14:44.831Z,62.00
2017-09-03T10:17:11.899Z,62.80
2017-09-03T10:19:38.920Z,61.50
2017-09-03T10:22:05.991Z,62.10
2017-09-03T10:24:33.025Z,61.20
2017-09-03T10:27:00.047Z,61.10
2017-09-03T10:29:27.113Z,61.30
2017-09-03T10:31:54.117Z,61.00
2017-09-03T10:34:21.200Z,60.60
2017-09-03T10:36:48.247Z,60.30
2017-09-03T10:39:15.266Z,60.30
2017-09-03T10:41:42.329Z,60.00
2017-09-03T10:44:09.399Z,60.40
2017-09-03T10:46:36.455Z,61.50
2017-09-03T10:49:03.579Z,62.50
2017-09-03T10:51:30.661Z,61.70
2017-09-03T10:57:28.186Z,60.00
2017-09-03T10:59:55.235Z,60.10
2017-09-03T11:02:22.273Z,59.00
2017-09-03T11:04:49.567Z,60.30
2017-09-03T11:07:16.603Z,58.50
2017-09-03T11:09:43.784Z,59.40
2017-09-03T11:12:10.852Z,57.90
2017-09-03T11:14:37.886Z,59.80
2017-09-03T11:17:05.020Z,57.00
2017-09-03T11:19:32.038Z,57.90
2017-09-03T11:21:59.117Z,57.30
2017-09-03T11:24:26.167Z,58.60
2017-09-03T11:26:53.195Z,57.50
2017-09-03T11:32:16.158Z,57.40
2017-09-03T11:34:43.232Z,57.90
2017-09-03T11:37:10.345Z,57.30
2017-09-03T11:39:37.400Z,59.00
2017-09-03T11:42:04.477Z,59.10
2017-09-03T11:44:31.572Z,55.70
2017-09-03T11:46:58.607Z,60.10
2017-09-03T11:49:25.660Z,60.40
2017-09-03T11:51:53.392Z,60.10
2017-09-03T11:54:20.622Z,59.60
2017-09-03T11:56:47.644Z,56.00
2017-09-03T11:59:14.740Z,58.30
2017-09-03T12:01:41.776Z,55.60
2017-09-03T12:04:08.859Z,56.20
2017-09-03T12:06:35.883Z,53.40
2017-09-03T12:09:02.957Z,53.00
2017-09-03T12:11:30.051Z,48.50
2017-09-03T12:13:57.084Z,50.90
2017-09-03T12:16:24.151Z,48.70
2017-09-03T12:18:51.234Z,47.70
2017-09-03T12:21:18.269Z,48.20
2017-09-03T12:23:45.426Z,49.60
2017-09-03T12:26:12.465Z,41.80
2017-09-03T12:28:39.523Z,45.20
2017-09-03T12:31:06.572Z,46.10
2017-09-03T12:33:33.699Z,43.70
2017-09-03T12:36:00.759Z,41.40
2017-09-03T12:38:27.798Z,40.70
2017-09-03T12:40:54.866Z,38.70
2017-09-03T12:43:21.894Z,38.80
2017-09-03T12:45:48.928Z,37.00
2017-09-03T12:48:15.968Z,35.90
2017-09-03T12:50:43.048Z,36.10
2017-09-03T12:53:10.098Z,34.70
2017-09-03T12:55:37.192Z,35.70
2017-09-03T12:58:04.282Z,35.30
2017-09-03T13:00:31.338Z,34.80
2017-09-03T13:02:58.990Z,32.90
2017-09-03T13:05:26.047Z,33.60
2017-09-03T13:07:53.103Z,34.80
2017-09-03T13:10:20.158Z,32.80
2017-09-03T13:12:47.188Z,32.40
2017-09-03T13:15:14.267Z,34.40
2017-09-03T13:17:41.330Z,32.40
2017-09-03T13:20:08.367Z,32.90
2017-09-03T13:22:35.456Z,33.80
2017-09-03T13:25:02.510Z,32.00
2017-09-03T13:27:29.582Z,32.80
2017-09-03T13:29:56.644Z,32.80
2017-09-03T13:32:23.701Z,32.30
2017-09-03T13:34:51.239Z,32.00
2017-09-03T13:37:18.266Z,32.80
2017-09-03T13:39:45.334Z,32.10
2017-09-03T13:42:12.370Z,32.20
2017-09-03T13:44:39.430Z,32.70
2017-09-03T13:47:06.488Z,32.00
2017-09-03T13:49:33.542Z,31.60
2017-09-03T13:52:00.604Z,31.60
2017-09-03T13:54:27.719Z,31.80
2017-09-03T13:56:54.776Z,31.80
2017-09-03T13:59:21.833Z,32.20
2017-09-03T14:01:48.843Z,32.50
2017-09-03T14:04:15.913Z,32.10
2017-09-03T14:06:42.931Z,33.10
2017-09-03T14:09:09.995Z,32.80
2017-09-03T14:11:37.012Z,32.80
2017-09-03T14:14:04.031Z,33.10
2017-09-03T14:16:31.086Z,33.40
2017-09-03T14:18:59.428Z,32.30
2017-09-03T14:21:26.502Z,32.10
2017-09-03T14:23:53.561Z,31.80
2017-09-03T14:26:20.579Z,32.50
2017-09-03T14:28:47.631Z,32.50
2017-09-03T14:31:14.660Z,32.30
2017-09-03T14:33:41.702Z,32.90
2017-09-03T14:36:08.730Z,31.70
2017-09-03T14:38:35.792Z,32.00
2017-09-03T14:41:02.819Z,32.40
2017-09-03T14:43:29.871Z,32.00
2017-09-03T14:45:56.929Z,32.80
2017-09-03T14:48:23.970Z,31.90
2017-09-03T14:50:51.053Z,33.10
2017-09-03T14:53:18.083Z,33.90
2017-09-03T14:55:45.970Z,32.90
2017-09-03T14:58:13.054Z,32.30
2017-09-03T15:00:40.159Z,31.30
2017-09-03T15:03:07.195Z,30.60
2017-09-03T15:05:34.233Z,31.80
2017-09-03T15:08:01.313Z,31.90
2017-09-03T15:10:29.145Z,31.80
2017-09-03T15:12:56.180Z,31.80
2017-09-03T15:15:23.213Z,31.70
2017-09-03T15:17:50.290Z,31.90
2017-09-03T15:20:17.359Z,31.50
2017-09-03T15:22:44.375Z,29.30
2017-09-03T15:25:11.433Z,30.00
2017-09-03T15:27:38.459Z,30.30
2017-09-03T15:30:06.521Z,29.50
2017-09-03T15:32:33.546Z,29.50
2017-09-03T15:35:00.589Z,29.80
2017-09-03T15:37:28.406Z,30.10
2017-09-03T15:39:55.465Z,30.10
2017-09-03T15:42:22.507Z,29.10
2017-09-03T15:44:49.524Z,29.10
2017-09-03T15:47:16.575Z,30.20
2017-09-03T15:49:43.608Z,29.60
2017-09-03T15:52:10.647Z,30.00
2017-09-03T15:54:37.677Z,29.70
2017-09-03T15:57:04.736Z,30.00
2017-09-03T15:59:31.791Z,29.60
2017-09-03T16:01:58.857Z,30.00
2017-09-03T16:04:25.902Z,29.70
2017-09-03T16:06:52.959Z,30.20
2017-09-03T16:09:20.006Z,29.60
2017-09-03T16:11:47.073Z,29.70
2017-09-03T16:14:14.104Z,28.90
2017-09-03T16:16:41.189Z,30.00
2017-09-03T16:19:08.199Z,30.00
2017-09-03T16:21:35.276Z,30.20
2017-09-03T16:24:02.339Z,29.90
2017-09-03T16:26:29.366Z,29.00
2017-09-03T16:28:56.425Z,29.30
2017-09-03T16:31:23.448Z,30.30
2017-09-03T16:33:50.520Z,30.10
2017-09-03T16:36:17.531Z,30.20
2017-09-03T16:38:44.580Z,30.80
2017-09-03T16:41:11.628Z,30.70
2017-09-03T16:43:38.668Z,30.40
2017-09-03T16:46:05.713Z,30.90
2017-09-03T16:48:32.732Z,31.00
2017-09-03T16:50:59.787Z,30.50
2017-09-03T16:53:26.868Z,30.80
2017-09-03T16:55:53.929Z,31.00
2017-09-03T16:58:21.081Z,30.30
2017-09-03T17:00:48.139Z,30.30
2017-09-03T17:03:15.196Z,31.90
2017-09-03T17:05:42.218Z,30.70
2017-09-03T17:08:09.396Z,32.50
2017-09-03T17:10:36.437Z,33.40
2017-09-03T17:13:03.498Z,35.70
2017-09-03T17:15:30.620Z,36.90
2017-09-03T17:17:57.668Z,39.00
2017-09-03T17:20:25.217Z,40.30
2017-09-03T17:22:52.281Z,40.80
2017-09-03T17:25:19.339Z,43.00
2017-09-03T17:27:46.611Z,44.50
2017-09-03T17:30:13.634Z,47.10
2017-09-03T17:32:40.748Z,51.60
2017-09-03T17:35:11.296Z,54.90
2017-09-03T17:37:44.218Z,59.70
2017-09-03T17:40:14.926Z,60.00
2017-09-03T17:42:43.847Z,60.10
2017-09-03T17:45:10.874Z,58.70
2017-09-03T17:47:37.960Z,58.60
2017-09-03T17:50:04.995Z,59.20
2017-09-03T17:52:32.040Z,60.50
2017-09-03T17:54:59.082Z,61.00
2017-09-03T17:57:26.120Z,61.70
2017-09-03T17:59:53.669Z,61.90
2017-09-03T18:02:20.736Z,61.60
2017-09-03T18:04:49.412Z,61.40
2017-09-03T18:07:16.470Z,61.60
2017-09-03T18:09:43.503Z,62.10
2017-09-03T18:12:10.568Z,61.60
2017-09-03T18:14:37.685Z,61.20
2017-09-03T18:17:04.736Z,61.20
2017-09-03T18:19:31.776Z,62.20
2017-09-03T18:21:58.805Z,61.80
2017-09-03T18:24:26.655Z,61.40
2017-09-03T18:26:53.670Z,61.30
2017-09-03T18:29:22.249Z,61.50
2017-09-03T18:31:49.956Z,62.50
2017-09-03T18:34:17.010Z,64.10
2017-09-03T18:36:44.839Z,64.70
2017-09-03T18:39:12.373Z,64.90
2017-09-03T18:41:39.442Z,63.90
2017-09-03T18:44:08.386Z,63.20
2017-09-03T18:46:36.194Z,63.30
2017-09-03T18:49:03.279Z,63.00
2017-09-03T18:54:40.578Z,64.90
2017-09-03T18:57:07.579Z,64.40
2017-09-03T18:59:37.192Z,64.20
2017-09-03T19:02:05.103Z,64.10
2017-09-03T19:04:49.882Z,66.00
2017-09-03T19:07:16.922Z,66.30
2017-09-03T19:09:43.974Z,66.20
2017-09-03T19:12:11.026Z,64.50
2017-09-03T19:14:38.072Z,63.90
2017-09-03T19:17:05.121Z,63.60
2017-09-03T19:19:32.141Z,63.20
2017-09-03T19:21:59.185Z,62.90
2017-09-03T19:24:26.203Z,63.00
2017-09-03T19:26:53.277Z,63.20
2017-09-03T19:29:20.290Z,63.10
2017-09-03T19:31:47.340Z,63.00
2017-09-03T19:34:14.396Z,62.80
2017-09-03T19:36:41.429Z,64.80
2017-09-03T19:39:08.458Z,68.60
2017-09-03T19:41:35.511Z,68.60
2017-09-03T19:44:02.550Z,66.80
2017-09-03T19:46:29.589Z,65.80
2017-09-03T19:48:56.626Z,64.80
2017-09-03T19:51:23.673Z,64.30
2017-09-03T19:53:50.699Z,64.10
2017-09-03T19:56:17.751Z,64.20
2017-09-03T19:58:44.788Z,64.40
2017-09-03T20:01:11.809Z,63.90
2017-09-03T20:03:38.867Z,63.90
2017-09-03T20:06:05.898Z,63.40
2017-09-03T20:08:32.982Z,63.60
2017-09-03T20:10:59.990Z,66.40
2017-09-03T20:13:27.043Z,71.00
2017-09-03T20:15:54.100Z,69.50
2017-09-03T20:18:21.145Z,66.20
2017-09-03T20:20:48.186Z,64.80
2017-09-03T20:23:15.223Z,64.40
2017-09-03T20:25:42.247Z,64.50
2017-09-03T20:28:09.298Z,64.20
2017-09-03T20:30:36.347Z,63.80
2017-09-03T20:33:03.449Z,64.10
2017-09-03T20:35:30.468Z,64.70
2017-09-03T20:37:57.499Z,64.50
2017-09-03T20:40:24.559Z,65.90
2017-09-03T20:42:51.598Z,65.20
2017-09-03T20:45:18.659Z,64.20
2017-09-03T20:47:46.458Z,63.90
2017-09-03T20:50:13.536Z,63.70
2017-09-03T20:52:40.566Z,63.80
2017-09-03T20:55:07.608Z,63.80
2017-09-03T20:57:34.638Z,63.80
2017-09-03T21:00:01.675Z,63.80
2017-09-03T21:02:28.747Z,63.20
2017-09-03T21:04:55.771Z,63.10
2017-09-03T21:07:22.824Z,63.10
2017-09-03T21:09:49.840Z,63.30
2017-09-03T21:12:16.919Z,63.10
2017-09-03T21:14:43.968Z,63.20
2017-09-03T21:17:11.038Z,63.20
2017-09-03T21:19:38.071Z,63.30
2017-09-03T21:22:05.880Z,64.00
2017-09-03T21:24:32.922Z,63.90
2017-09-03T21:26:59.950Z,63.90
2017-09-03T21:29:27.020Z,65.40
2017-09-03T21:31:54.063Z,64.90
2017-09-03T21:34:21.134Z,63.80
2017-09-03T21:36:48.191Z,63.40
2017-09-03T21:39:15.237Z,63.40
2017-09-03T21:41:42.326Z,63.50
2017-09-03T21:44:10.113Z,64.00
2017-09-03T21:46:37.170Z,64.00
2017-09-03T21:49:04.191Z,64.10
2017-09-03T21:51:31.239Z,64.30
2017-09-03T21:53:58.270Z,63.20
2017-09-03T21:56:26.049Z,64.00
2017-09-03T21:58:53.098Z,64.10
2017-09-03T22:01:20.117Z,65.10
2017-09-03T22:03:47.126Z,65.00
2017-09-03T22:06:14.176Z,65.30
2017-09-03T22:08:41.207Z,65.80
2017-09-03T22:11:08.251Z,65.40
2017-09-03T22:13:35.266Z,65.40
2017-09-03T22:16:02.301Z,67.00
2017-09-03T22:18:29.347Z,65.80
2017-09-03T22:20:56.369Z,70.60
2017-09-03T22:23:23.426Z,75.00
2017-09-03T22:25:50.453Z,79.60
2017-09-03T22:28:17.487Z,78.70
2017-09-03T22:30:44.512Z,73.10
2017-09-03T22:33:11.560Z,71.80
2017-09-03T22:35:38.582Z,73.00
2017-09-03T22:38:05.647Z,70.40
2017-09-03T22:40:33.427Z,68.00
2017-09-03T22:43:00.482Z,68.00
2017-09-03T22:45:27.514Z,67.30
2017-09-03T22:47:54.574Z,66.70
2017-09-03T22:50:21.595Z,66.40
2017-09-03T22:52:48.666Z,67.30
2017-09-03T22:55:15.694Z,68.00
2017-09-03T22:57:42.718Z,67.70
2017-09-03T23:00:09.780Z,67.10
2017-09-03T23:02:36.823Z,70.70
2017-09-03T23:05:03.904Z,70.30
2017-09-03T23:07:30.942Z,69.30
2017-09-03T23:09:57.954Z,67.60
2017-09-03T23:12:25.020Z,66.90
2017-09-03T23:14:52.032Z,65.90
2017-09-03T23:17:19.049Z,65.80
2017-09-03T23:19:46.090Z,65.80
2017-09-03T23:22:13.881Z,66.80
2017-09-03T23:24:40.913Z,66.70
2017-09-03T23:27:07.945Z,66.10
2017-09-03T23:29:34.991Z,65.90
2017-09-03T23:32:02.026Z,65.90
2017-09-03T23:34:29.039Z,66.10
2017-09-03T23:36:56.086Z,67.30
2017-09-03T23:39:23.089Z,69.80
2017-09-03T23:41:50.140Z,67.80
2017-09-03T23:44:17.131Z,66.40
2017-09-03T23:46:44.179Z,65.80
2017-09-03T23:49:11.219Z,65.50
2017-09-03T23:51:38.235Z,65.30
2017-09-03T23:54:05.281Z,65.00
2017-09-03T23:56:32.287Z,65.10
2017-09-03T23:58:59.351Z,65.40
